Weather at Piedmont Municipal Airport

Public forecast

Using degrees Fahrenheit for public forecast. Weather courtesy of forecast.io.

Closest aviation weather report (METAR) to Piedmont Municipal Airport

Closest report is Poplar Bluff Municipal Airport, 28.2 nm (52.2 km) SE.

2022/11/30 15:53 (retrieved 29 minutes ago)

KPOF 301553Z AUTO 31013KT 10SM CLR 02/M08 A3036 RMK AO2 SLP282 T00221083

Closest aviation forecast (TAF) to Piedmont Municipal Airport

Closest forecast is Cape Girardeau Regional Airport, 55.0 nm (101.8 km) E.

2022/11/30 12:22 (retrieved 4 hours ago)

TAF KCGI 301120Z 3012/0112 32013G23KT P6SM SKC FM302200 31006KT P6SM SKC FM010300 00000KT P6SM SCT250